createdAt,value
2022-10-07T00:01:10.888Z,100.00
2022-10-07T00:03:38.980Z,100.00
2022-10-07T00:06:08.957Z,100.00
2022-10-07T00:08:37.965Z,100.00
2022-10-07T00:11:08.353Z,100.00
2022-10-07T00:13:39.676Z,100.00
2022-10-07T00:16:09.405Z,100.00
2022-10-07T00:18:38.277Z,100.00
2022-10-07T00:21:07.960Z,100.00
2022-10-07T00:23:36.800Z,100.00
2022-10-07T00:26:06.391Z,100.00
2022-10-07T00:28:34.938Z,100.00
2022-10-07T00:31:06.540Z,100.00
2022-10-07T00:33:37.636Z,100.00
2022-10-07T00:36:08.851Z,100.00
2022-10-07T00:38:36.803Z,100.00
2022-10-07T00:41:05.055Z,100.00
2022-10-07T00:43:33.740Z,100.00
2022-10-07T00:46:05.609Z,100.00
2022-10-07T00:48:34.397Z,100.00
2022-10-07T00:51:03.073Z,100.00
2022-10-07T00:53:33.118Z,100.00
2022-10-07T00:56:02.959Z,100.00
2022-10-07T00:58:31.764Z,100.00
2022-10-07T01:01:00.042Z,100.00
2022-10-07T01:03:29.500Z,100.00
2022-10-07T01:38:52.773Z,100.00
2022-10-07T01:45:41.832Z,100.00
2022-10-07T01:48:10.689Z,100.00
2022-10-07T01:50:40.393Z,100.00
2022-10-07T01:53:19.516Z,100.00
2022-10-07T01:55:56.457Z,100.00
2022-10-07T01:58:34.234Z,100.00
2022-10-07T02:01:10.304Z,100.00
2022-10-07T02:04:00.115Z,100.00
2022-10-07T02:06:39.333Z,100.00
2022-10-07T02:09:13.100Z,100.00
2022-10-07T02:11:42.539Z,100.00
2022-10-07T02:14:12.965Z,100.00
2022-10-07T02:16:43.491Z,100.00
2022-10-07T02:19:15.876Z,100.00
2022-10-07T02:21:47.164Z,100.00
2022-10-07T02:24:16.079Z,100.00
2022-10-07T02:26:45.175Z,100.00
2022-10-07T02:29:15.089Z,100.00
2022-10-07T02:31:44.444Z,100.00
2022-10-07T02:34:19.520Z,100.00
2022-10-07T02:36:52.168Z,100.00
2022-10-07T02:39:20.143Z,100.00
2022-10-07T02:41:51.829Z,100.00
2022-10-07T02:44:28.033Z,100.00
2022-10-07T02:46:59.859Z,100.00
2022-10-07T02:49:29.633Z,100.00
2022-10-07T02:52:01.176Z,100.00
2022-10-07T02:54:34.810Z,100.00
2022-10-07T02:57:03.374Z,100.00
2022-10-07T02:59:33.315Z,100.00
2022-10-07T03:02:03.880Z,100.00
2022-10-07T03:04:32.622Z,100.00
2022-10-07T03:07:02.003Z,100.00
2022-10-07T03:09:30.869Z,100.00
2022-10-07T03:11:58.735Z,100.00
2022-10-07T03:14:26.651Z,100.00
2022-10-07T03:16:54.534Z,100.00
2022-10-07T03:19:22.667Z,100.00
2022-10-07T03:21:55.048Z,100.00
2022-10-07T03:24:24.322Z,100.00
2022-10-07T03:26:52.175Z,100.00
2022-10-07T03:29:20.727Z,100.00
2022-10-07T03:31:49.282Z,100.00
2022-10-07T03:34:17.398Z,100.00
2022-10-07T03:36:48.389Z,100.00
2022-10-07T03:39:17.403Z,100.00
2022-10-07T03:41:48.816Z,100.00
2022-10-07T03:44:17.111Z,100.00
2022-10-07T03:46:45.461Z,100.00
2022-10-07T03:49:13.605Z,100.00
2022-10-07T03:51:41.462Z,100.00
2022-10-07T03:54:10.493Z,100.00
2022-10-07T03:56:40.371Z,100.00
2022-10-07T03:59:09.653Z,100.00
2022-10-07T04:01:38.115Z,100.00
2022-10-07T04:04:07.589Z,100.00
2022-10-07T04:06:38.865Z,100.00
2022-10-07T04:09:10.610Z,100.00
2022-10-07T04:11:40.570Z,100.00
2022-10-07T04:14:11.035Z,100.00
2022-10-07T04:16:40.605Z,100.00
2022-10-07T04:19:11.074Z,100.00
2022-10-07T04:21:38.962Z,100.00
2022-10-07T04:24:07.007Z,100.00
2022-10-07T04:26:36.591Z,100.00
2022-10-07T04:29:04.495Z,100.00
2022-10-07T04:31:33.973Z,100.00
2022-10-07T04:34:05.269Z,100.00
2022-10-07T04:36:36.740Z,100.00
2022-10-07T04:39:08.186Z,100.00
2022-10-07T04:41:43.978Z,100.00
2022-10-07T04:44:17.534Z,100.00
2022-10-07T04:46:56.861Z,100.00
2022-10-07T04:49:27.107Z,100.00
2022-10-07T04:51:56.866Z,100.00
2022-10-07T04:54:28.719Z,100.00
2022-10-07T04:56:57.331Z,100.00
2022-10-07T04:59:29.953Z,100.00
2022-10-07T05:02:00.052Z,100.00
2022-10-07T05:04:29.883Z,100.00
2022-10-07T05:06:59.421Z,100.00
2022-10-07T05:09:27.466Z,100.00
2022-10-07T05:11:56.288Z,100.00
2022-10-07T05:14:24.626Z,100.00
2022-10-07T05:16:53.938Z,100.00
2022-10-07T05:19:25.874Z,100.00
2022-10-07T05:21:54.877Z,100.00
2022-10-07T05:24:23.159Z,100.00
2022-10-07T05:26:52.110Z,100.00
2022-10-07T05:29:20.106Z,100.00
2022-10-07T05:31:51.724Z,100.00
2022-10-07T05:34:23.271Z,100.00
2022-10-07T05:36:52.537Z,100.00
2022-10-07T05:39:20.444Z,100.00
2022-10-07T05:41:51.726Z,100.00
2022-10-07T05:44:24.869Z,100.00
2022-10-07T05:46:54.155Z,100.00
2022-10-07T05:49:23.049Z,100.00
2022-10-07T05:51:52.618Z,100.00
2022-10-07T05:54:20.838Z,100.00
2022-10-07T05:56:49.020Z,100.00
2022-10-07T05:59:20.113Z,100.00
2022-10-07T06:01:48.852Z,100.00
2022-10-07T06:04:21.002Z,100.00
2022-10-07T06:06:52.119Z,100.00
2022-10-07T06:09:38.456Z,100.00
2022-10-07T06:12:30.425Z,100.00
2022-10-07T06:15:00.251Z,100.00
2022-10-07T06:17:28.458Z,100.00
2022-10-07T06:19:59.412Z,100.00
2022-10-07T06:22:29.216Z,100.00
2022-10-07T06:24:58.817Z,100.00
2022-10-07T06:27:26.903Z,100.00
2022-10-07T06:29:55.498Z,100.00
2022-10-07T06:32:23.506Z,100.00
2022-10-07T06:34:51.750Z,100.00
2022-10-07T06:37:20.605Z,100.00
2022-10-07T06:39:50.132Z,100.00
2022-10-07T06:42:18.183Z,100.00
2022-10-07T06:44:58.808Z,100.00
2022-10-07T06:47:26.837Z,100.00
2022-10-07T06:49:54.927Z,100.00
2022-10-07T06:52:22.846Z,100.00
2022-10-07T06:54:52.192Z,100.00
2022-10-07T06:57:44.153Z,100.00
2022-10-07T07:00:10.504Z,100.00
2022-10-07T07:02:38.842Z,100.00
2022-10-07T07:05:08.846Z,100.00
2022-10-07T07:07:38.212Z,100.00
2022-10-07T07:10:09.012Z,100.00
2022-10-07T07:12:40.793Z,100.00
2022-10-07T07:15:10.742Z,100.00
2022-10-07T07:17:40.286Z,100.00
2022-10-07T07:20:10.598Z,100.00
2022-10-07T07:22:39.229Z,100.00
2022-10-07T07:25:10.396Z,100.00
2022-10-07T07:27:39.236Z,100.00
2022-10-07T07:30:09.748Z,100.00
2022-10-07T07:32:37.688Z,100.00
2022-10-07T07:35:06.530Z,100.00
2022-10-07T07:37:34.608Z,100.00
2022-10-07T07:40:03.658Z,100.00
2022-10-07T07:42:34.119Z,100.00
2022-10-07T07:45:02.533Z,100.00
2022-10-07T07:47:31.508Z,100.00
2022-10-07T07:49:59.347Z,100.00
2022-10-07T07:52:31.683Z,100.00
2022-10-07T07:55:02.802Z,100.00
2022-10-07T07:57:32.361Z,100.00
2022-10-07T08:00:07.466Z,100.00
2022-10-07T08:02:41.880Z,100.00
2022-10-07T08:05:13.164Z,100.00
2022-10-07T08:07:41.502Z,100.00
2022-10-07T08:10:11.320Z,100.00
2022-10-07T08:12:40.268Z,100.00
2022-10-07T08:15:11.503Z,100.00
2022-10-07T08:17:40.094Z,100.00
2022-10-07T08:20:10.778Z,100.00
2022-10-07T08:22:39.601Z,100.00
2022-10-07T08:25:08.603Z,100.00
2022-10-07T08:27:37.166Z,100.00
2022-10-07T08:30:06.428Z,100.00
2022-10-07T08:32:37.341Z,100.00
2022-10-07T08:35:06.277Z,100.00
2022-10-07T08:37:34.069Z,100.00
2022-10-07T08:40:02.432Z,100.00
2022-10-07T08:42:34.992Z,100.00
2022-10-07T08:45:02.936Z,100.00
2022-10-07T08:47:34.662Z,100.00
2022-10-07T08:50:08.177Z,100.00
2022-10-07T08:52:44.308Z,100.00
2022-10-07T08:55:18.586Z,100.00
2022-10-07T08:58:04.469Z,100.00
2022-10-07T09:00:39.863Z,100.00
2022-10-07T09:03:15.923Z,100.00
2022-10-07T09:05:48.926Z,100.00
2022-10-07T09:08:23.291Z,100.00
2022-10-07T09:10:53.374Z,100.00
2022-10-07T09:13:23.109Z,100.00
2022-10-07T09:16:06.470Z,100.00
2022-10-07T09:18:39.175Z,100.00
2022-10-07T09:21:11.225Z,100.00
2022-10-07T09:23:39.627Z,100.00
2022-10-07T09:26:10.620Z,100.00
2022-10-07T09:28:38.598Z,100.00
2022-10-07T09:31:06.948Z,100.00
2022-10-07T09:33:42.314Z,100.00
2022-10-07T09:36:13.133Z,100.00
2022-10-07T09:38:44.028Z,100.00
2022-10-07T09:41:16.285Z,100.00
2022-10-07T09:44:13.945Z,100.00
2022-10-07T09:46:47.215Z,100.00
2022-10-07T09:49:32.367Z,100.00
2022-10-07T09:52:02.582Z,100.00
2022-10-07T09:54:31.832Z,100.00
2022-10-07T09:57:01.622Z,100.00
2022-10-07T09:59:30.624Z,100.00
2022-10-07T10:01:59.950Z,100.00
2022-10-07T10:04:32.381Z,100.00
2022-10-07T10:07:05.058Z,100.00
2022-10-07T10:09:33.856Z,100.00
2022-10-07T10:12:04.617Z,100.00
2022-10-07T10:14:42.343Z,100.00
2022-10-07T10:17:23.198Z,100.00
2022-10-07T10:23:53.653Z,100.00
2022-10-07T10:26:41.868Z,100.00
2022-10-07T10:29:20.260Z,100.00
2022-10-07T10:32:21.348Z,100.00
2022-10-07T10:34:55.993Z,100.00
2022-10-07T10:37:26.385Z,100.00
2022-10-07T10:40:03.195Z,100.00
2022-10-07T10:42:48.603Z,100.00
2022-10-07T10:45:28.574Z,100.00
2022-10-07T10:48:19.959Z,100.00
2022-10-07T10:50:53.592Z,100.00
2022-10-07T10:53:33.353Z,100.00
2022-10-07T10:56:20.890Z,100.00
2022-10-07T10:58:58.374Z,100.00
2022-10-07T11:01:33.251Z,100.00
2022-10-07T11:04:15.791Z,100.00
2022-10-07T11:06:45.619Z,100.00
2022-10-07T11:09:17.732Z,100.00
2022-10-07T11:11:47.317Z,100.00
2022-10-07T11:14:18.016Z,100.00
2022-10-07T11:16:47.615Z,100.00
2022-10-07T11:19:19.031Z,100.00
2022-10-07T11:21:48.512Z,100.00
2022-10-07T11:24:19.395Z,100.00
2022-10-07T11:26:51.487Z,100.00
2022-10-07T11:29:24.570Z,100.00
2022-10-07T11:31:57.683Z,100.00
2022-10-07T11:34:33.288Z,100.00
2022-10-07T11:37:07.066Z,100.00
2022-10-07T11:39:38.296Z,100.00
2022-10-07T11:42:14.584Z,100.00
2022-10-07T11:44:49.245Z,100.00
2022-10-07T11:47:21.776Z,100.00
2022-10-07T11:49:55.865Z,100.00
2022-10-07T11:52:26.709Z,100.00
2022-10-07T11:54:59.043Z,100.00
2022-10-07T11:57:32.455Z,100.00
2022-10-07T12:00:01.403Z,100.00
2022-10-07T12:02:44.369Z,100.00
2022-10-07T12:05:50.120Z,100.00
2022-10-07T12:08:32.531Z,100.00
2022-10-07T12:11:40.053Z,100.00
2022-10-07T12:14:34.302Z,100.00
2022-10-07T12:17:17.699Z,100.00
2022-10-07T12:19:45.627Z,100.00
2022-10-07T12:22:19.817Z,100.00
2022-10-07T12:25:29.083Z,100.00
2022-10-07T12:27:57.264Z,100.00
2022-10-07T12:30:51.302Z,100.00
2022-10-07T12:33:27.330Z,100.00
2022-10-07T12:35:55.213Z,100.00
2022-10-07T12:38:28.536Z,100.00
2022-10-07T12:41:13.180Z,100.00
2022-10-07T12:43:56.027Z,100.00
2022-10-07T12:46:25.211Z,100.00
2022-10-07T12:49:00.003Z,100.00
2022-10-07T12:51:29.952Z,100.00
2022-10-07T12:53:59.792Z,100.00
2022-10-07T12:56:29.915Z,99.78
2022-10-07T12:59:35.966Z,100.00
2022-10-07T13:02:36.134Z,99.59
2022-10-07T13:05:39.257Z,100.00
2022-10-07T13:08:42.968Z,100.00
2022-10-07T13:11:47.819Z,100.00
2022-10-07T13:14:19.955Z,95.85
2022-10-07T13:16:50.719Z,96.54
2022-10-07T13:19:40.192Z,95.89
2022-10-07T13:22:12.582Z,92.42
2022-10-07T13:24:42.098Z,91.40
2022-10-07T13:27:10.827Z,93.78
2022-10-07T13:29:39.514Z,99.23
2022-10-07T13:32:08.673Z,100.00
2022-10-07T13:34:38.793Z,99.64
2022-10-07T13:37:25.771Z,100.00
2022-10-07T13:39:53.646Z,97.57
2022-10-07T13:42:22.686Z,92.72
2022-10-07T13:44:50.663Z,94.65
2022-10-07T13:47:21.045Z,95.72
2022-10-07T13:49:52.733Z,96.36
2022-10-07T13:52:22.519Z,93.10
2022-10-07T13:54:54.286Z,96.44
2022-10-07T13:57:22.602Z,94.10
2022-10-07T13:59:51.629Z,88.26
2022-10-07T14:02:20.518Z,89.34
2022-10-07T14:04:56.441Z,93.67
2022-10-07T14:07:24.341Z,91.49
2022-10-07T14:10:04.767Z,94.23
2022-10-07T14:12:36.220Z,92.46
2022-10-07T14:15:07.062Z,94.14
2022-10-07T14:17:41.487Z,96.27
2022-10-07T14:20:21.151Z,96.87
2022-10-07T14:22:51.107Z,95.85
2022-10-07T14:25:20.841Z,97.83
2022-10-07T14:27:54.487Z,93.16
2022-10-07T14:30:55.484Z,89.33
2022-10-07T14:33:44.927Z,95.46
2022-10-07T14:36:16.148Z,90.35
2022-10-07T14:38:46.380Z,92.95
2022-10-07T14:41:15.241Z,97.79
2022-10-07T14:43:45.067Z,100.00
2022-10-07T14:46:17.779Z,100.00
2022-10-07T14:48:45.686Z,100.00
2022-10-07T14:51:16.366Z,100.00
2022-10-07T14:53:44.796Z,100.00
2022-10-07T14:56:15.531Z,100.00
2022-10-07T14:58:43.387Z,100.00
2022-10-07T15:01:11.320Z,100.00
2022-10-07T15:03:39.225Z,100.00
2022-10-07T15:06:07.575Z,100.00
2022-10-07T15:08:36.805Z,100.00
2022-10-07T15:11:06.454Z,100.00
2022-10-07T15:13:36.725Z,100.00
2022-10-07T15:16:04.634Z,100.00
2022-10-07T15:18:32.446Z,100.00
2022-10-07T15:21:00.313Z,100.00
2022-10-07T15:23:30.072Z,100.00
2022-10-07T15:25:59.473Z,100.00
2022-10-07T15:28:27.385Z,100.00
2022-10-07T15:31:03.157Z,100.00
2022-10-07T15:33:31.411Z,100.00
2022-10-07T15:35:59.547Z,100.00
2022-10-07T15:38:28.019Z,100.00
2022-10-07T15:40:56.958Z,100.00
2022-10-07T15:43:26.534Z,100.00
2022-10-07T15:45:54.553Z,100.00
2022-10-07T15:48:24.032Z,100.00
2022-10-07T15:50:53.660Z,100.00
2022-10-07T15:53:22.380Z,100.00
2022-10-07T15:55:51.790Z,100.00
2022-10-07T15:58:19.825Z,100.00
2022-10-07T16:00:59.867Z,100.00
2022-10-07T16:03:28.199Z,100.00
2022-10-07T16:05:57.331Z,100.00
2022-10-07T16:08:25.308Z,100.00
2022-10-07T16:10:53.172Z,100.00
2022-10-07T16:13:22.714Z,100.00
2022-10-07T16:16:02.646Z,100.00
2022-10-07T16:18:30.995Z,100.00
2022-10-07T16:20:58.811Z,100.00
2022-10-07T16:23:26.636Z,100.00
2022-10-07T16:25:54.455Z,100.00
2022-10-07T16:28:39.851Z,100.00
2022-10-07T16:31:09.170Z,100.00
2022-10-07T16:33:37.101Z,100.00
2022-10-07T16:36:12.151Z,100.00
2022-10-07T16:38:40.564Z,100.00
2022-10-07T16:41:08.437Z,100.00
2022-10-07T16:43:36.403Z,100.00
2022-10-07T16:46:04.708Z,100.00
2022-10-07T16:48:39.166Z,100.00
2022-10-07T16:51:09.526Z,100.00
2022-10-07T16:53:37.431Z,100.00
2022-10-07T16:56:05.649Z,100.00
2022-10-07T16:58:34.973Z,100.00
2022-10-07T17:01:03.163Z,100.00
2022-10-07T17:03:31.284Z,100.00
2022-10-07T17:06:00.924Z,100.00
2022-10-07T17:08:29.423Z,100.00
2022-10-07T17:10:57.719Z,100.00
2022-10-07T17:13:25.599Z,100.00
2022-10-07T17:15:53.718Z,100.00
2022-10-07T17:18:21.822Z,100.00
2022-10-07T17:20:49.768Z,100.00
2022-10-07T17:23:19.036Z,100.00
2022-10-07T17:25:47.319Z,100.00
2022-10-07T17:28:15.415Z,100.00
2022-10-07T17:30:44.979Z,100.00
2022-10-07T17:33:13.093Z,100.00
2022-10-07T17:35:41.172Z,100.00
2022-10-07T17:38:10.855Z,100.00
2022-10-07T17:40:40.106Z,100.00
2022-10-07T17:43:09.081Z,100.00
2022-10-07T17:45:37.888Z,100.00
2022-10-07T17:48:07.171Z,100.00
2022-10-07T17:50:39.163Z,100.00
2022-10-07T17:53:07.445Z,100.00
2022-10-07T17:55:35.413Z,100.00
2022-10-07T17:58:04.668Z,100.00
2022-10-07T18:00:34.330Z,100.00
2022-10-07T18:03:02.238Z,100.00
2022-10-07T18:05:30.146Z,100.00
2022-10-07T18:07:58.286Z,100.00
2022-10-07T18:10:26.247Z,100.00
2022-10-07T18:13:12.025Z,100.00
2022-10-07T18:15:41.245Z,100.00
2022-10-07T18:18:09.119Z,100.00
2022-10-07T18:20:38.183Z,100.00
2022-10-07T18:23:06.134Z,100.00
2022-10-07T18:25:35.372Z,100.00
2022-10-07T18:28:03.682Z,100.00
2022-10-07T18:30:31.635Z,100.00
2022-10-07T18:33:00.908Z,100.00
2022-10-07T18:35:29.324Z,100.00
2022-10-07T18:37:57.444Z,100.00
2022-10-07T18:40:25.590Z,100.00
2022-10-07T18:42:53.662Z,100.00
2022-10-07T18:45:23.235Z,100.00
2022-10-07T18:47:51.510Z,100.00
2022-10-07T18:50:20.841Z,100.00
2022-10-07T18:52:48.847Z,100.00
2022-10-07T18:55:17.087Z,100.00
2022-10-07T18:57:45.446Z,100.00
2022-10-07T19:00:15.274Z,100.00
2022-10-07T19:02:46.006Z,100.00
2022-10-07T19:05:14.117Z,100.00
2022-10-07T19:07:43.738Z,100.00
2022-10-07T19:10:11.821Z,100.00
2022-10-07T19:12:57.126Z,100.00
2022-10-07T19:15:25.163Z,100.00
2022-10-07T19:17:53.111Z,100.00
2022-10-07T19:20:21.200Z,100.00
2022-10-07T19:22:50.677Z,100.00
2022-10-07T19:25:35.968Z,100.00
2022-10-07T19:28:04.046Z,100.00
2022-10-07T19:30:32.099Z,100.00
2022-10-07T19:33:00.125Z,100.00
2022-10-07T19:35:30.030Z,100.00
2022-10-07T19:37:59.736Z,100.00
2022-10-07T19:40:27.936Z,100.00
2022-10-07T19:42:55.952Z,100.00
2022-10-07T19:45:24.054Z,100.00
2022-10-07T19:47:52.231Z,100.00
2022-10-07T19:50:20.194Z,100.00
2022-10-07T19:52:48.114Z,100.00
2022-10-07T19:55:17.497Z,100.00
2022-10-07T19:57:45.647Z,100.00
2022-10-07T20:00:14.218Z,100.00
2022-10-07T20:02:42.194Z,100.00
2022-10-07T20:05:10.189Z,100.00
2022-10-07T20:07:38.126Z,100.00
2022-10-07T20:10:08.032Z,100.00
2022-10-07T20:12:40.466Z,100.00
2022-10-07T20:15:10.143Z,100.00
2022-10-07T20:17:39.355Z,100.00
2022-10-07T20:20:08.283Z,100.00
2022-10-07T20:22:36.413Z,100.00
2022-10-07T20:25:05.230Z,100.00
2022-10-07T20:27:33.463Z,100.00
2022-10-07T20:30:07.399Z,100.00
2022-10-07T20:32:35.507Z,100.00
2022-10-07T20:35:06.812Z,100.00
2022-10-07T20:37:34.729Z,100.00
2022-10-07T20:40:20.098Z,100.00
2022-10-07T20:42:48.339Z,100.00
2022-10-07T20:45:17.754Z,100.00
2022-10-07T20:47:47.200Z,100.00
2022-10-07T20:50:15.394Z,100.00
2022-10-07T20:52:45.151Z,100.00
2022-10-07T20:55:14.268Z,100.00
2022-10-07T20:57:42.156Z,100.00
2022-10-07T21:00:16.287Z,100.00
2022-10-07T21:02:46.278Z,100.00
2022-10-07T21:05:14.643Z,100.00
2022-10-07T21:07:42.891Z,100.00
2022-10-07T21:10:10.833Z,100.00
2022-10-07T21:12:40.332Z,100.00
2022-10-07T21:15:08.826Z,100.00
2022-10-07T21:17:36.928Z,100.00
2022-10-07T21:20:07.110Z,100.00
2022-10-07T21:22:35.094Z,100.00
2022-10-07T21:25:03.052Z,100.00
2022-10-07T21:27:30.965Z,100.00
2022-10-07T21:29:58.829Z,100.00
2022-10-07T21:32:28.129Z,100.00
2022-10-07T21:34:57.331Z,100.00
2022-10-07T21:37:27.126Z,100.00
2022-10-07T21:39:55.085Z,100.00
2022-10-07T21:42:23.138Z,100.00
2022-10-07T21:44:51.254Z,100.00
2022-10-07T21:47:19.147Z,100.00
2022-10-07T21:49:47.023Z,100.00
2022-10-07T21:52:14.944Z,100.00
2022-10-07T21:54:44.264Z,100.00
2022-10-07T21:57:12.461Z,100.00
2022-10-07T21:59:40.267Z,100.00
2022-10-07T22:02:08.798Z,100.00
2022-10-07T22:04:36.792Z,100.00
2022-10-07T22:07:22.322Z,100.00
2022-10-07T22:09:51.750Z,100.00
2022-10-07T22:12:19.583Z,100.00
2022-10-07T22:14:47.534Z,100.00
2022-10-07T22:17:15.353Z,100.00
2022-10-07T22:19:43.272Z,100.00
2022-10-07T22:22:13.646Z,100.00
2022-10-07T22:24:41.479Z,100.00
2022-10-07T22:27:10.874Z,100.00
2022-10-07T22:29:38.840Z,100.00
2022-10-07T22:32:07.839Z,100.00
2022-10-07T22:34:53.565Z,100.00
2022-10-07T22:37:21.522Z,100.00
2022-10-07T22:39:49.323Z,100.00
2022-10-07T22:42:18.766Z,100.00
2022-10-07T22:44:46.594Z,100.00
2022-10-07T22:47:16.335Z,100.00
2022-10-07T22:49:44.217Z,100.00
2022-10-07T22:52:12.267Z,100.00
2022-10-07T22:54:40.350Z,100.00
2022-10-07T22:57:08.239Z,100.00
2022-10-07T22:59:38.791Z,100.00
2022-10-07T23:02:06.727Z,100.00
2022-10-07T23:04:34.735Z,100.00
2022-10-07T23:07:02.582Z,100.00
2022-10-07T23:09:30.564Z,100.00
2022-10-07T23:11:59.245Z,100.00
2022-10-07T23:14:27.065Z,100.00
2022-10-07T23:16:56.871Z,100.00
2022-10-07T23:19:24.877Z,100.00
2022-10-07T23:21:52.886Z,100.00
2022-10-07T23:24:20.704Z,100.00
2022-10-07T23:26:48.668Z,100.00
2022-10-07T23:29:16.820Z,100.00
2022-10-07T23:31:45.343Z,100.00
2022-10-07T23:34:14.927Z,100.00
2022-10-07T23:36:42.875Z,100.00
2022-10-07T23:39:11.186Z,100.00
2022-10-07T23:41:39.051Z,100.00
2022-10-07T23:44:06.970Z,100.00
2022-10-07T23:46:36.306Z,100.00
2022-10-07T23:49:04.889Z,100.00
2022-10-07T23:51:34.473Z,100.00
2022-10-07T23:54:03.539Z,100.00
2022-10-07T23:56:31.786Z,100.00
2022-10-07T23:59:00.543Z,100.00
